Terminal Aerodrome Forecast
Issued by NWS

Home | Current Version | Previous Version | Text Only | Print | Product List | Glossary On
Versions: 1 2 3 4 5 6 7 8 9 10 11 12 13 14 15 16 17 18
000
FTUS43 KEAX 141127
TAFMKC
TAF
KMKC 141127Z 1412/1512 19008KT P6SM -RA BKN050
     FM141500 20012G20KT P6SM SCT040 OVC090
     FM142300 21013G22KT P6SM -TSRA BKN040CB
      TEMPO 1500/1502 3SM TSRA BKN020CB
     FM150400 30014G23KT P6SM SCT020=

USA.gov is the U.S. government's official web portal to all federal, state and local government web resources and services.